Time;durP1;ratioP1;P1;durP2;ratioP2;P2;SDS_P1;SDS_P2;PMS_P1;PMS_P2;Temp;Humidity;BMP_temperature;BMP_pressure;BME280_temperature;BME280_humidity;BME280_pressure;Samples;Min_cycle;Max_cycle;Signal;HPM_P1;HPM_P2
2022/06/28 01:51:09;;;;;;;;;;;;;;;15.39;61.46;98677.63;4912455;24;19933;-81
2022/06/28 01:53:35;;;;;;;;;;;;;;;15.39;60.46;98689.22;4779678;29;19928;-83
2022/06/28 01:56:06;;;;;;;;;;;;;;;15.25;59.23;98701.50;4810036;29;19979;-82
2022/06/28 01:58:55;;;;;;;;;;;;;;;14.96;58.95;98698.44;4797193;29;20371;-82
2022/06/28 02:01:24;;;;;;;;;;;;;;;14.76;59.13;98687.16;4794987;29;19951;-80
2022/06/28 02:03:52;;;;;;;;;;;;;;;14.63;59.26;98700.22;4779520;29;19945;-82
2022/06/28 02:06:27;;;;;;;;;;;;;;;14.65;58.60;98701.78;4809177;29;20149;-82
2022/06/28 02:08:59;;;;;;;;;;;;;;;14.32;57.65;98707.00;4779906;29;19981;-80
2022/06/28 02:11:32;;;;;;;;;;;;;;;14.25;58.16;98703.28;4780399;29;19932;-82
2022/06/28 02:14:01;;;;;;;;;;;;;;;14.17;58.12;98705.09;4794377;29;20020;-82
2022/06/28 02:16:47;;;;;;;;;;;;;;;14.15;58.44;98702.56;4798971;29;19979;-80
2022/06/28 02:19:13;;;;;;;;;;;;;;;14.18;59.29;98713.00;4778965;29;19929;-80
2022/06/28 02:21:45;;;;;;;;;;;;;;;14.34;58.63;98715.75;4795103;29;19936;-87
2022/06/28 02:24:14;;;;;;;;;;;;;;;14.53;58.22;98721.91;4811394;29;19928;-85
2022/06/28 02:26:41;;;;;;;;;;;;;;;14.59;58.29;98737.38;4779442;29;19985;-81
2022/06/28 02:29:07;;;;;;;;;;;;;;;14.48;59.17;98726.88;4778681;29;19988;-82
2022/06/28 02:31:36;;;;;;;;;;;;;;;14.45;59.15;98729.94;4778865;29;20381;-82
2022/06/28 02:34:02;;;;;;;;;;;;;;;14.42;59.17;98735.63;4779029;29;19929;-81
2022/06/28 02:41:42;;;;;;;;;;;;;;;14.53;60.17;98738.03;4793686;29;20009;-81
2022/06/28 02:44:08;;;;;;;;;;;;;;;14.74;59.49;98735.78;4778492;29;19986;-80
2022/06/28 02:46:34;;;;;;;;;;;;;;;14.73;58.82;98733.22;4778581;29;19929;-81
2022/06/28 02:48:59;;;;;;;;;;;;;;;14.67;58.63;98745.50;4793088;29;20344;-79
2022/06/28 02:51:26;;;;;;;;;;;;;;;14.50;59.19;98743.75;4795284;29;19932;-81
2022/06/28 02:53:53;;;;;;;;;;;;;;;14.24;59.94;98755.34;4795895;29;19928;-82
2022/06/28 02:56:20;;;;;;;;;;;;;;;14.08;60.29;98741.84;4811471;29;19929;-81
2022/06/28 02:58:46;;;;;;;;;;;;;;;13.95;60.46;98738.72;4811159;29;19929;-79
2022/06/28 03:01:13;;;;;;;;;;;;;;;13.89;61.20;98744.75;4811430;29;20026;-80
2022/06/28 03:03:40;;;;;;;;;;;;;;;13.81;61.28;98740.19;4826817;29;20310;-81
2022/06/28 03:06:05;;;;;;;;;;;;;;;14.05;59.32;98740.31;4796144;29;19935;-82
2022/06/28 03:08:32;;;;;;;;;;;;;;;14.32;58.76;98736.56;4826410;29;19928;-84
2022/06/28 03:11:00;;;;;;;;;;;;;;;14.58;56.85;98746.47;4826732;29;20416;-81
2022/06/28 03:13:29;;;;;;;;;;;;;;;14.64;56.87;98735.06;4826581;29;19935;-85
2022/06/28 03:16:18;;;;;;;;;;;;;;;14.89;55.64;98738.63;4813833;29;19933;-86
2022/06/28 03:22:03;;;;;;;;;;;;;;;15.10;54.75;98740.88;4841918;29;19932;-85
2022/06/28 03:24:29;;;;;;;;;;;;;;;15.27;54.63;98726.44;4812008;29;19977;-84
2022/06/28 03:26:55;;;;;;;;;;;;;;;15.35;53.57;98739.06;4797899;29;20427;-86
2022/06/28 03:29:22;;;;;;;;;;;;;;;15.45;53.83;98745.09;4813131;29;19928;-84
2022/06/28 03:31:49;;;;;;;;;;;;;;;15.70;53.17;98748.66;4820340;29;19952;-87
2022/06/28 03:34:15;;;;;;;;;;;;;;;15.42;52.58;98752.66;4819971;29;19936;-84
2022/06/28 03:36:46;;;;;;;;;;;;;;;15.25;52.88;98749.97;4819431;29;20108;-83
2022/06/28 03:39:39;;;;;;;;;;;;;;;14.91;53.46;98765.41;4813230;29;20412;-85
2022/06/28 03:42:13;;;;;;;;;;;;;;;14.63;54.52;98781.81;4796981;29;19939;-84
2022/06/28 03:45:13;;;;;;;;;;;;;;;;;;;;;
2022/06/28 03:51:20;;;;;;;;;;;;;;;14.75;54.19;98783.19;4807063;29;20027;-83
2022/06/28 03:57:19;;;;;;;;;;;;;;;14.42;54.55;98792.09;4770149;29;19929;-84
2022/06/28 03:59:45;;;;;;;;;;;;;;;14.17;55.10;98797.31;4795206;29;19936;-82
2022/06/28 04:02:14;;;;;;;;;;;;;;;14.13;55.44;98798.63;4811582;29;19959;-86
2022/06/28 04:04:45;;;;;;;;;;;;;;;14.06;55.71;98786.84;4798005;29;19929;-85
2022/06/28 04:07:12;;;;;;;;;;;;;;;14.12;55.43;98782.69;4801765;29;19935;-85
2022/06/28 04:09:38;;;;;;;;;;;;;;;13.93;55.59;98792.63;4799344;29;19928;-87
2022/06/28 04:12:04;;;;;;;;;;;;;;;14.02;55.61;98802.44;4799197;29;20311;-87
2022/06/28 04:14:30;;;;;;;;;;;;;;;14.04;54.62;98786.16;4811277;29;19939;-84
2022/06/28 04:17:14;;;;;;;;;;;;;;;14.12;54.90;98788.91;4829404;29;20352;-88
2022/06/28 04:20:10;;;;;;;;;;;;;;;14.25;54.32;98794.66;4834776;29;19982;-86
2022/06/28 04:22:56;;;;;;;;;;;;;;;14.21;53.70;98793.31;4819814;29;19928;-88
2022/06/28 04:25:26;;;;;;;;;;;;;;;14.25;53.36;98789.28;4817984;29;19930;-86
2022/06/28 04:28:01;;;;;;;;;;;;;;;14.52;52.92;98799.06;4831830;29;20031;-84
2022/06/28 04:30:35;;;;;;;;;;;;;;;14.53;52.45;98799.91;4813721;29;19928;-84
2022/06/28 04:33:23;;;;;;;;;;;;;;;14.61;52.27;98794.56;4806646;29;20316;-85
2022/06/28 04:35:49;;;;;;;;;;;;;;;14.82;51.07;98784.22;4825469;29;19989;-83
2022/06/28 04:38:16;;;;;;;;;;;;;;;14.73;50.88;98790.56;4828112;29;20004;-88
2022/06/28 04:44:42;;;;;;;;;;;;;;;14.52;50.43;98801.75;4834930;29;20426;-84
2022/06/28 04:47:14;;;;;;;;;;;;;;;14.47;50.69;98797.81;4794324;29;19951;-84
2022/06/28 04:49:42;;;;;;;;;;;;;;;14.54;49.78;98798.91;4809781;29;20356;-83
2022/06/28 04:52:12;;;;;;;;;;;;;;;14.60;49.85;98792.88;4784178;30;20435;-86
2022/06/28 04:54:45;;;;;;;;;;;;;;;14.74;49.90;98792.28;4784922;30;20294;-85
2022/06/28 04:57:11;;;;;;;;;;;;;;;14.68;50.39;98790.22;4784191;30;19929;-84
2022/06/28 04:59:41;;;;;;;;;;;;;;;14.71;50.49;98794.44;4769633;30;20515;-85
2022/06/28 05:02:38;;;;;;;;;;;;;;;;;;;;;
2022/06/28 05:05:17;;;;;;;;;;;;;;;14.91;49.50;98803.91;4783331;30;20485;-88
2022/06/28 05:08:11;;;;;;;;;;;;;;;14.85;49.53;98801.88;4750631;30;19930;-88
2022/06/28 05:11:24;;;;;;;;;;;;;;;15.11;49.56;98795.53;4738932;30;20362;-87
2022/06/28 05:14:18;;;;;;;;;;;;;;;15.22;47.73;98798.75;4766266;30;20068;-86
2022/06/28 05:16:47;;;;;;;;;;;;;;;15.28;47.55;98805.34;4722298;30;19952;-86
2022/06/28 05:19:14;;;;;;;;;;;;;;;15.17;46.96;98811.88;4737442;30;20445;-81
2022/06/28 05:21:50;;;;;;;;;;;;;;;15.10;47.38;98805.47;4751814;30;19952;-85
2022/06/28 05:24:17;;;;;;;;;;;;;;;15.10;47.98;98797.41;4803794;29;19976;-80
2022/06/28 06:38:11;;;;;;;;;;;;;;;17.48;41.69;98839.06;5209625;24;20310;-81
2022/06/28 06:40:38;;;;;;;;;;;;;;;17.81;41.88;98842.41;4796803;29;19928;-80
2022/06/28 06:43:04;;;;;;;;;;;;;;;17.99;40.55;98854.78;4811319;29;19929;-83
2022/06/28 06:45:36;;;;;;;;;;;;;;;18.36;40.25;98849.34;4797432;29;19966;-83
2022/06/28 06:48:03;;;;;;;;;;;;;;;18.67;39.60;98857.31;4796762;29;19985;-82
2022/06/28 06:50:30;;;;;;;;;;;;;;;18.69;39.25;98857.09;4796830;29;19932;-87
2022/06/28 06:52:56;;;;;;;;;;;;;;;18.77;38.92;98848.06;4796300;29;19940;-82
2022/06/28 06:55:23;;;;;;;;;;;;;;;18.44;39.24;98837.59;4811357;29;19928;-83
2022/06/28 06:57:50;;;;;;;;;;;;;;;17.95;40.41;98843.47;4796419;29;19934;-84
2022/06/28 07:00:16;;;;;;;;;;;;;;;17.79;41.08;98865.22;4841386;29;19928;-82
2022/06/28 07:02:45;;;;;;;;;;;;;;;17.56;41.03;98865.19;4810927;29;20387;-83
2022/06/28 07:05:11;;;;;;;;;;;;;;;17.80;40.94;98856.13;4811157;29;19932;-84
2022/06/28 07:07:40;;;;;;;;;;;;;;;18.06;40.25;98851.16;4811154;29;19928;-83
2022/06/28 07:10:10;;;;;;;;;;;;;;;18.43;39.70;98861.13;4811560;29;19966;-82
2022/06/28 07:12:37;;;;;;;;;;;;;;;18.58;39.00;98842.19;4797292;29;19928;-82
2022/06/28 07:15:04;;;;;;;;;;;;;;;18.49;38.84;98846.00;4812621;29;19947;-82
2022/06/28 07:17:36;;;;;;;;;;;;;;;18.91;38.82;98850.78;4798317;29;19936;-82
2022/06/28 07:20:02;;;;;;;;;;;;;;;18.79;38.75;98857.69;4844396;29;20300;-82
2022/06/28 07:22:28;;;;;;;;;;;;;;;18.75;38.24;98855.56;4827927;29;19928;-82
2022/06/28 07:24:59;;;;;;;;;;;;;;;18.97;38.50;98862.75;4813222;29;19935;-82
2022/06/28 07:27:25;;;;;;;;;;;;;;;18.93;38.29;98853.31;4797378;29;19971;-81
2022/06/28 07:29:51;;;;;;;;;;;;;;;19.23;37.57;98854.09;4812188;29;20028;-83
2022/06/28 07:32:17;;;;;;;;;;;;;;;19.24;37.24;98861.19;4827391;29;20000;-83
2022/06/28 07:34:43;;;;;;;;;;;;;;;19.13;37.64;98846.25;4812394;29;20012;-83
2022/06/28 07:37:08;;;;;;;;;;;;;;;18.94;38.25;98860.41;4809054;29;20285;-81
2022/06/28 07:39:37;;;;;;;;;;;;;;;18.60;38.49;98869.06;4779887;29;19928;-81
2022/06/28 07:42:32;;;;;;;;;;;;;;;18.67;39.00;98860.00;4734289;29;20445;-84
2022/06/28 07:45:16;;;;;;;;;;;;;;;19.04;37.64;98855.53;4818355;29;19988;-83
2022/06/28 07:47:47;;;;;;;;;;;;;;;19.07;37.46;98860.59;4815653;29;20017;-83
2022/06/28 07:53:02;;;;;;;;;;;;;;;18.51;38.54;98865.59;4794424;29;19935;-83
2022/06/28 07:55:41;;;;;;;;;;;;;;;18.63;39.09;98847.88;4794309;29;19980;-83
2022/06/28 07:58:13;;;;;;;;;;;;;;;19.21;38.53;98844.47;4793912;29;20416;-82
2022/06/28 08:00:38;;;;;;;;;;;;;;;19.42;37.67;98848.06;4808845;29;19936;-84
2022/06/28 08:03:14;;;;;;;;;;;;;;;19.69;36.46;98842.13;4794959;29;19963;-82
2022/06/28 08:05:40;;;;;;;;;;;;;;;19.31;36.40;98845.03;4808895;29;19990;-84
2022/06/28 08:08:06;;;;;;;;;;;;;;;19.13;36.96;98856.25;4793923;29;20293;-84
2022/06/28 08:10:34;;;;;;;;;;;;;;;19.47;37.32;98833.94;4793919;29;19977;-83
2022/06/28 08:13:02;;;;;;;;;;;;;;;19.41;36.65;98850.97;4808597;29;19929;-85
2022/06/28 08:15:28;;;;;;;;;;;;;;;19.58;36.63;98849.69;4808612;29;19929;-82
2022/06/28 08:18:22;;;;;;;;;;;;;;;19.85;36.08;98821.00;4808473;29;20080;-84
2022/06/28 08:20:54;;;;;;;;;;;;;;;20.17;36.25;98828.78;4792253;29;19929;-82
2022/06/28 08:23:20;;;;;;;;;;;;;;;20.12;35.55;98827.50;4791503;29;19940;-84
2022/06/28 08:25:48;;;;;;;;;;;;;;;20.09;35.52;98822.47;4791491;29;20293;-84
2022/06/28 08:28:16;;;;;;;;;;;;;;;19.87;35.51;98829.78;4791680;29;19945;-83
2022/06/28 08:30:45;;;;;;;;;;;;;;;20.24;35.77;98835.94;4791851;29;19929;-84
2022/06/28 08:33:34;;;;;;;;;;;;;;;20.13;35.94;98833.75;4770004;30;19934;-89
2022/06/28 08:35:59;;;;;;;;;;;;;;;19.79;33.98;98831.81;4757360;30;19929;-80
2022/06/28 08:38:27;;;;;;;;;;;;;;;19.64;35.27;98842.72;4784340;29;19977;-88
2022/06/28 08:40:54;;;;;;;;;;;;;;;20.10;35.04;98831.44;4754682;30;19944;-84
2022/06/28 08:43:21;;;;;;;;;;;;;;;19.71;35.27;98843.63;4783947;30;19933;-85
2022/06/28 08:45:47;;;;;;;;;;;;;;;19.55;35.50;98846.53;4754976;30;20019;-86
2022/06/28 08:48:20;;;;;;;;;;;;;;;19.37;35.31;98849.69;4768619;30;20404;-83
2022/06/28 08:50:51;;;;;;;;;;;;;;;19.12;36.11;98844.59;4769222;30;19929;-84
2022/06/28 08:53:18;;;;;;;;;;;;;;;19.23;36.45;98837.00;4769276;30;19929;-84
2022/06/28 08:55:48;;;;;;;;;;;;;;;19.22;35.32;98846.16;4755030;30;20062;-83
2022/06/28 08:58:16;;;;;;;;;;;;;;;19.20;36.15;98848.22;4769473;30;20429;-83
2022/06/28 09:45:54;;;;;;;;;;;;;;;20.43;32.45;98828.13;5205800;24;19933;-82
2022/06/28 09:48:22;;;;;;;;;;;;;;;20.28;32.25;98849.94;4779405;29;20015;-82
2022/06/28 09:50:56;;;;;;;;;;;;;;;20.42;32.52;98826.44;4794115;29;19928;-81
2022/06/28 09:53:25;;;;;;;;;;;;;;;21.04;31.38;98820.13;4775023;29;20033;-83
2022/06/28 09:55:52;;;;;;;;;;;;;;;21.24;31.65;98825.63;4789804;29;19935;-81
2022/06/28 09:58:18;;;;;;;;;;;;;;;21.06;31.05;98834.34;4804869;29;19929;-80
2022/06/28 10:00:44;;;;;;;;;;;;;;;20.79;31.32;98831.50;4760066;29;19936;-82
2022/06/28 10:03:11;;;;;;;;;;;;;;;20.58;30.38;98826.19;4759675;29;19933;-80
2022/06/28 10:05:38;;;;;;;;;;;;;;;21.39;28.75;98829.06;4774358;29;20449;-80
2022/06/28 10:08:05;;;;;;;;;;;;;;;21.30;29.10;98838.41;4774580;29;19929;-81
2022/06/28 10:10:33;;;;;;;;;;;;;;;20.88;29.76;98843.06;4774195;29;19936;-82
2022/06/28 10:19:08;;;;;;;;;;;;;;;22.35;29.18;98839.66;4788582;29;20508;-87
2022/06/28 10:21:43;;;;;;;;;;;;;;;22.04;29.33;98832.94;4806462;29;19929;-80
2022/06/28 10:24:13;;;;;;;;;;;;;;;21.84;29.52;98848.41;4789216;29;19960;-87
2022/06/28 10:26:42;;;;;;;;;;;;;;;21.75;30.09;98850.50;4792635;29;20424;-84
2022/06/28 10:29:12;;;;;;;;;;;;;;;21.56;29.70;98846.69;4775520;29;19936;-82
2022/06/28 10:31:51;;;;;;;;;;;;;;;22.63;29.70;98846.72;4795228;29;19941;-91
2022/06/28 10:38:36;;;;;;;;;;;;;;;22.84;27.65;98860.09;4769014;30;20801;-79
2022/06/28 10:41:13;;;;;;;;;;;;;;;23.33;26.95;98855.97;4763389;29;20281;-80
2022/06/28 10:43:45;;;;;;;;;;;;;;;24.03;26.50;98855.16;4792821;29;20023;-79
2022/06/28 10:46:14;;;;;;;;;;;;;;;24.30;24.85;98842.97;4809973;29;20010;-81
2022/06/28 10:48:48;;;;;;;;;;;;;;;23.95;24.31;98857.09;4779072;29;20027;-81
2022/06/28 10:51:15;;;;;;;;;;;;;;;23.33;23.81;98855.97;4793254;29;19964;-82
2022/06/28 10:53:54;;;;;;;;;;;;;;;22.65;23.52;98855.53;4770928;30;19933;-81
2022/06/28 10:56:21;;;;;;;;;;;;;;;23.30;23.28;98859.13;4741207;30;20425;-82
2022/06/28 10:59:12;;;;;;;;;;;;;;;24.38;22.71;98852.78;4755763;30;19930;-91
2022/06/28 11:01:39;;;;;;;;;;;;;;;25.01;21.48;98857.19;4741579;30;20313;-83
2022/06/28 11:04:11;;;;;;;;;;;;;;;24.47;21.86;98849.56;4752813;30;19983;-81
2022/06/28 11:06:42;;;;;;;;;;;;;;;23.87;23.38;98853.81;4753330;30;19930;-83
2022/06/28 11:09:32;;;;;;;;;;;;;;;24.84;22.56;98855.06;4767847;30;20360;-80
2022/06/28 11:12:06;;;;;;;;;;;;;;;25.02;22.31;98840.56;4767786;30;20074;-80
2022/06/28 11:14:34;;;;;;;;;;;;;;;24.23;22.31;98874.97;4752734;30;20360;-80
2022/06/28 11:17:00;;;;;;;;;;;;;;;23.79;22.85;98857.63;4767723;30;19930;-82
2022/06/28 11:19:26;;;;;;;;;;;;;;;24.29;23.18;98860.41;4752321;30;19930;-82
2022/06/28 11:21:55;;;;;;;;;;;;;;;25.04;22.13;98854.00;4752335;30;19933;-82
2022/06/28 11:24:23;;;;;;;;;;;;;;;24.46;22.61;98852.53;4752443;30;19930;-83
2022/06/28 11:29:37;;;;;;;;;;;;;;;25.52;21.51;98855.97;4752249;30;19929;-83
2022/06/28 11:32:15;;;;;;;;;;;;;;;25.87;21.91;98859.69;4729826;30;19938;-82
2022/06/28 11:34:41;;;;;;;;;;;;;;;25.37;22.28;98870.06;4703984;30;19937;-82
2022/06/28 11:37:08;;;;;;;;;;;;;;;24.63;22.82;98864.53;4703148;30;19931;-83
2022/06/28 11:39:39;;;;;;;;;;;;;;;24.04;23.84;98865.88;4703323;30;19930;-81
2022/06/28 11:42:07;;;;;;;;;;;;;;;22.38;25.97;98873.78;4742780;30;19952;-81
2022/06/28 11:44:33;;;;;;;;;;;;;;;22.81;26.04;98882.31;4723410;30;20300;-80
2022/06/28 11:46:59;;;;;;;;;;;;;;;23.38;25.83;98868.94;4768265;30;20012;-80
2022/06/28 11:49:29;;;;;;;;;;;;;;;24.43;24.94;98850.22;4755439;30;20032;-79
2022/06/28 11:51:55;;;;;;;;;;;;;;;25.61;23.32;98871.84;4755133;30;19973;-79
2022/06/28 11:54:22;;;;;;;;;;;;;;;24.13;24.88;98880.06;4770196;30;20397;-79
2022/06/28 11:56:48;;;;;;;;;;;;;;;23.56;25.92;98862.78;4754616;30;19933;-80
2022/06/28 11:59:15;;;;;;;;;;;;;;;22.99;26.68;98873.53;4766761;30;19929;-80
2022/06/28 12:01:41;;;;;;;;;;;;;;;21.91;27.02;98881.91;4722710;30;19929;-80
2022/06/28 12:04:10;;;;;;;;;;;;;;;20.96;28.94;98882.81;4802811;29;19928;-80
2022/06/28 12:06:39;;;;;;;;;;;;;;;20.37;29.96;98882.16;4805851;29;19929;-80
2022/06/28 12:09:07;;;;;;;;;;;;;;;20.14;30.68;98890.53;4805816;29;19989;-80
2022/06/28 12:11:39;;;;;;;;;;;;;;;19.62;31.61;98891.69;4775424;29;20315;-80
2022/06/28 12:14:07;;;;;;;;;;;;;;;19.15;33.57;98901.13;4775343;29;19928;-80
2022/06/28 12:16:38;;;;;;;;;;;;;;;18.79;33.48;98900.19;4805753;29;19929;-79
2022/06/28 12:19:16;;;;;;;;;;;;;;;19.00;33.50;98892.16;4791652;29;19928;-80
2022/06/28 12:22:29;;;;;;;;;;;;;;;19.23;34.19;98899.34;4792859;29;20426;-87
2022/06/28 12:24:56;;;;;;;;;;;;;;;19.82;34.31;98907.31;4790404;29;19994;-80
2022/06/28 12:27:27;;;;;;;;;;;;;;;21.68;31.79;98889.59;4790356;29;20448;-80
2022/06/28 12:29:55;;;;;;;;;;;;;;;21.84;31.22;98897.38;4793748;29;20061;-79
2022/06/28 12:32:29;;;;;;;;;;;;;;;21.68;31.72;98900.47;4794131;29;19932;-80
2022/06/28 12:35:07;;;;;;;;;;;;;;;22.20;31.14;98902.50;4794433;29;19935;-78
2022/06/28 12:37:37;;;;;;;;;;;;;;;22.48;29.95;98905.00;4809725;29;19935;-81
2022/06/28 12:40:03;;;;;;;;;;;;;;;23.52;28.11;98897.84;4794284;29;20350;-78
2022/06/28 12:42:31;;;;;;;;;;;;;;;24.72;26.31;98906.09;4794163;29;20450;-79
2022/06/28 12:45:02;;;;;;;;;;;;;;;25.22;25.27;98892.31;4809093;29;20396;-80
2022/06/28 12:47:54;;;;;;;;;;;;;;;25.79;24.69;98890.13;4841271;29;20110;-81
2022/06/28 12:50:25;;;;;;;;;;;;;;;25.85;24.25;98894.69;4772331;29;19929;-78
2022/06/28 12:52:58;;;;;;;;;;;;;;;25.01;24.65;98881.81;4786781;29;20604;-77
2022/06/28 12:55:29;;;;;;;;;;;;;;;26.15;23.56;98885.59;4786678;29;19960;-80
2022/06/28 12:57:58;;;;;;;;;;;;;;;26.83;22.86;98906.19;4786751;29;19929;-81
2022/06/28 13:03:58;;;;;;;;;;;;;;;27.52;21.93;98893.44;4795743;29;19951;-79
2022/06/28 13:06:44;;;;;;;;;;;;;;;;;;;;;
2022/06/28 13:09:13;;;;;;;;;;;;;;;25.69;22.57;98906.28;4786444;29;19952;-79
2022/06/28 13:11:41;;;;;;;;;;;;;;;23.50;25.67;98916.31;4786482;29;20039;-80
2022/06/28 13:14:08;;;;;;;;;;;;;;;21.92;29.23;98909.94;4786365;29;20405;-81
2022/06/28 13:16:34;;;;;;;;;;;;;;;21.29;30.37;98912.88;4757088;29;20098;-80
2022/06/28 13:19:00;;;;;;;;;;;;;;;20.97;31.92;98917.91;4772151;29;19940;-80
2022/06/28 13:21:26;;;;;;;;;;;;;;;20.41;32.69;98907.03;4768576;30;20403;-82
2022/06/28 13:23:52;;;;;;;;;;;;;;;20.55;33.50;98925.16;4768670;30;19969;-81
2022/06/28 13:26:42;;;;;;;;;;;;;;;22.75;29.83;98915.88;4765552;30;20417;-81
2022/06/28 13:29:29;;;;;;;;;;;;;;;24.48;27.76;98910.50;4750835;30;19930;-83
2022/06/28 13:31:58;;;;;;;;;;;;;;;24.77;26.27;98913.59;4751035;30;19991;-80
2022/06/28 13:34:26;;;;;;;;;;;;;;;23.33;28.79;98926.88;4750991;30;19984;-81
2022/06/28 13:36:53;;;;;;;;;;;;;;;23.47;29.58;98936.69;4750592;30;20371;-80
2022/06/28 13:39:19;;;;;;;;;;;;;;;23.68;29.38;98945.66;4750610;30;19994;-79
2022/06/28 13:41:46;;;;;;;;;;;;;;;24.81;28.57;98942.16;4750931;30;19930;-80
2022/06/28 13:44:41;;;;;;;;;;;;;;;25.53;27.61;98943.28;4753066;30;20420;-89
2022/06/28 13:47:10;;;;;;;;;;;;;;;26.17;25.67;98935.50;4721739;30;19936;-86
2022/06/28 13:49:37;;;;;;;;;;;;;;;25.92;25.95;98950.19;4719307;30;19977;-87
2022/06/28 13:52:04;;;;;;;;;;;;;;;26.03;25.77;98940.38;4733663;30;20029;-86
2022/06/28 13:55:03;;;;;;;;;;;;;;;26.93;24.56;98949.47;4717618;30;19996;-91
2022/06/28 14:00:31;;;;;;;;;;;;;;;26.29;25.55;98950.09;4720792;30;19995;-86
2022/06/28 14:03:02;;;;;;;;;;;;;;;27.34;24.20;98962.22;4703604;30;20365;-87
2022/06/28 14:05:31;;;;;;;;;;;;;;;28.29;23.51;98952.63;4749287;30;20029;-85
2022/06/28 14:08:09;;;;;;;;;;;;;;;28.84;21.77;98949.19;4739219;30;19962;-87
2022/06/28 14:10:38;;;;;;;;;;;;;;;28.43;21.54;98955.91;4735845;30;19930;-90
2022/06/28 14:13:05;;;;;;;;;;;;;;;28.82;21.62;98964.28;4734970;30;19930;-89
2022/06/28 14:15:32;;;;;;;;;;;;;;;29.40;20.83;98954.69;4719286;30;19930;-85
2022/06/28 14:18:01;;;;;;;;;;;;;;;29.46;20.65;98942.66;4748538;30;19934;-87
2022/06/28 14:20:30;;;;;;;;;;;;;;;28.64;20.77;98962.63;4721422;30;20024;-90
2022/06/28 14:23:07;;;;;;;;;;;;;;;27.30;22.12;98956.38;4756368;30;20388;-90
2022/06/28 14:25:46;;;;;;;;;;;;;;;25.95;23.21;98954.34;4783459;29;20412;-90
2022/06/28 14:28:59;;;;;;;;;;;;;;;;;;;;;
2022/06/28 14:31:48;;;;;;;;;;;;;;;25.86;24.11;98950.28;4781981;29;20563;-89
2022/06/28 14:35:06;;;;;;;;;;;;;;;26.03;23.26;98961.44;4768720;30;19930;-86
2022/06/28 14:37:37;;;;;;;;;;;;;;;25.17;24.45;98946.88;4754676;30;19965;-87
2022/06/28 14:40:12;;;;;;;;;;;;;;;25.79;23.94;98958.59;4786467;29;19929;-87
2022/06/28 14:43:01;;;;;;;;;;;;;;;26.70;23.35;98961.25;4809631;29;19929;-88
2022/06/28 14:45:39;;;;;;;;;;;;;;;27.21;23.27;98957.84;4807210;29;19936;-87
2022/06/28 14:48:16;;;;;;;;;;;;;;;26.13;24.02;98958.97;4771023;30;19929;-87
2022/06/28 14:51:17;;;;;;;;;;;;;;;25.38;25.33;98960.09;4754771;30;20461;-89
2022/06/28 14:53:53;;;;;;;;;;;;;;;25.98;25.36;98964.84;4780422;29;19929;-87
2022/06/28 14:56:42;;;;;;;;;;;;;;;25.04;26.46;98971.59;4763329;29;19941;-88
2022/06/28 15:03:09;;;;;;;;;;;;;;;25.01;26.40;98969.31;4735918;30;19937;-86
2022/06/28 15:05:58;;;;;;;;;;;;;;;23.30;27.54;98975.56;4744246;30;19930;-88
2022/06/28 15:08:44;;;;;;;;;;;;;;;22.69;28.58;98972.06;4738343;30;19929;-88
2022/06/28 15:11:11;;;;;;;;;;;;;;;22.28;28.17;98969.50;4768007;30;19929;-90
2022/06/28 15:13:38;;;;;;;;;;;;;;;21.19;29.24;98985.78;4768355;30;20546;-90
2022/06/28 15:16:05;;;;;;;;;;;;;;;20.97;29.94;98982.28;4753541;30;20317;-94
2022/06/28 15:18:32;;;;;;;;;;;;;;;22.12;28.68;98969.88;4759510;30;20003;-84
2022/06/28 15:21:01;;;;;;;;;;;;;;;23.08;27.48;98980.44;4785835;29;20552;-90
2022/06/28 15:31:56;;;;;;;;;;;;;;;22.13;29.22;98993.31;4754040;30;19953;-89
2022/06/28 15:34:27;;;;;;;;;;;;;;;20.47;31.56;98985.00;4755704;30;20412;-89
2022/06/28 15:37:01;;;;;;;;;;;;;;;19.14;33.45;98991.56;4779911;30;19952;-89
2022/06/28 15:39:31;;;;;;;;;;;;;;;17.70;35.75;99003.13;4755287;30;20393;-92
2022/06/28 15:42:01;;;;;;;;;;;;;;;17.19;36.88;98993.72;4742136;30;19930;-90
2022/06/28 15:44:28;;;;;;;;;;;;;;;17.35;36.44;99000.94;4747220;30;19933;-88
2022/06/28 15:46:54;;;;;;;;;;;;;;;18.13;35.22;99006.28;4743209;30;19929;-90
2022/06/28 15:49:48;;;;;;;;;;;;;;;19.01;33.81;98999.47;4793326;30;19929;-92
2022/06/28 15:52:29;;;;;;;;;;;;;;;19.83;31.55;99001.25;4778614;30;20457;-92
2022/06/28 15:55:11;;;;;;;;;;;;;;;18.76;32.71;99004.28;4775458;30;19937;-93
2022/06/28 15:57:58;;;;;;;;;;;;;;;17.44;34.80;99003.41;4792868;29;20028;-92
2022/06/28 16:00:40;;;;;;;;;;;;;;;16.69;36.06;99006.41;4785716;29;19929;-90
2022/06/28 16:07:23;;;;;;;;;;;;;;;15.65;37.83;99014.19;4742796;30;20025;-93
2022/06/28 16:10:20;;;;;;;;;;;;;;;15.35;39.58;99023.66;4731272;30;19930;-82
2022/06/28 16:12:57;;;;;;;;;;;;;;;15.16;39.35;99012.13;4788491;29;19955;-82
2022/06/28 16:15:43;;;;;;;;;;;;;;;14.86;40.14;99018.00;4775949;29;19935;-82
2022/06/28 16:18:43;;;;;;;;;;;;;;;14.64;41.24;99027.44;4809784;29;19932;-80
2022/06/28 16:21:22;;;;;;;;;;;;;;;14.51;41.16;99033.19;4795321;29;19928;-92
2022/06/28 16:23:55;;;;;;;;;;;;;;;14.38;41.31;99025.50;4810939;29;19929;-82
2022/06/28 16:26:29;;;;;;;;;;;;;;;14.31;41.11;99027.13;4811141;29;19940;-82
2022/06/28 16:28:55;;;;;;;;;;;;;;;14.07;42.00;99033.94;4809899;29;19928;-78
2022/06/28 16:31:21;;;;;;;;;;;;;;;14.02;42.28;99036.22;4794274;29;19939;-82
2022/06/28 16:33:47;;;;;;;;;;;;;;;13.95;42.61;99042.38;4794610;29;19975;-79
2022/06/28 16:36:39;;;;;;;;;;;;;;;13.70;43.28;99042.09;4824659;29;19929;-81
2022/06/28 16:39:29;;;;;;;;;;;;;;;;;;;;;
2022/06/28 16:42:34;;;;;;;;;;;;;;;13.46;43.45;99033.75;4811812;29;19928;-81
2022/06/28 16:45:17;;;;;;;;;;;;;;;;;;;;;
2022/06/28 16:48:00;;;;;;;;;;;;;;;13.21;44.30;99046.81;4787507;29;19976;-82
2022/06/28 16:50:26;;;;;;;;;;;;;;;13.17;44.61;99045.44;4757379;29;20385;-81
2022/06/28 16:52:57;;;;;;;;;;;;;;;13.08;44.89;99049.81;4757588;29;20008;-82
2022/06/28 16:55:39;;;;;;;;;;;;;;;13.12;44.81;99042.31;4775135;29;19929;-82
2022/06/28 16:58:06;;;;;;;;;;;;;;;13.00;45.41;99049.69;4786886;29;20019;-82
2022/06/28 17:00:35;;;;;;;;;;;;;;;12.85;46.06;99057.34;4757524;29;20345;-82
